Time;durP1;ratioP1;P1;durP2;ratioP2;P2;SDS_P1;SDS_P2;PMS_P1;PMS_P2;Temp;Humidity;BMP_temperature;BMP_pressure;BME280_temperature;BME280_humidity;BME280_pressure;Samples;Min_cycle;Max_cycle;Signal;HPM_P1;HPM_P2
2021/04/24 00:00:26;;;;;;;9.43;3.30;;;11.90;52.70;;;;;;6186345;23;20005;-50
2021/04/24 00:02:53;;;;;;;17.48;3.60;;;11.90;52.70;;;;;;6187017;23;20005;-50
2021/04/24 00:05:23;;;;;;;7.85;3.70;;;11.90;52.80;;;;;;6186663;23;19997;-50
2021/04/24 00:07:51;;;;;;;10.77;3.45;;;11.90;52.80;;;;;;6186752;23;20092;-50
2021/04/24 00:10:16;;;;;;;11.48;3.67;;;11.90;52.80;;;;;;6186532;23;20001;-49
2021/04/24 00:12:43;;;;;;;9.32;3.90;;;11.90;52.90;;;;;;6186357;23;20409;-50
2021/04/24 00:15:12;;;;;;;11.73;3.70;;;11.90;52.80;;;;;;6186110;23;20223;-50
2021/04/24 00:17:38;;;;;;;7.18;2.85;;;11.90;52.90;;;;;;6186458;23;20083;-50
2021/04/24 00:20:09;;;;;;;11.68;4.03;;;11.90;52.90;;;;;;6185954;23;20008;-50
2021/04/24 00:22:34;;;;;;;7.13;3.50;;;11.90;52.90;;;;;;6186377;23;20012;-50
2021/04/24 00:25:00;;;;;;;12.20;4.03;;;11.90;52.90;;;;;;6186565;23;20041;-49
2021/04/24 00:27:26;;;;;;;12.45;3.17;;;11.90;52.90;;;;;;6186432;23;20036;-50
2021/04/24 00:29:51;;;;;;;11.32;3.97;;;11.80;52.90;;;;;;6186561;23;20001;-49
2021/04/24 00:32:17;;;;;;;9.38;3.47;;;11.90;53.00;;;;;;6186756;23;20009;-49
2021/04/24 00:34:42;;;;;;;8.32;3.85;;;11.80;53.00;;;;;;6186310;23;20012;-49
2021/04/24 00:37:09;;;;;;;11.23;3.92;;;11.90;53.10;;;;;;6186162;23;20008;-50
2021/04/24 00:39:34;;;;;;;8.30;3.28;;;11.80;53.00;;;;;;6186083;23;20009;-49
2021/04/24 00:42:00;;;;;;;9.98;3.83;;;11.80;53.00;;;;;;6186273;23;20005;-49
2021/04/24 00:44:26;;;;;;;10.38;3.75;;;11.80;53.70;;;;;;6186357;23;20001;-49
2021/04/24 00:46:51;;;;;;;8.13;3.25;;;11.80;53.10;;;;;;6186487;23;20068;-49
2021/04/24 00:49:17;;;;;;;8.27;3.90;;;11.80;53.10;;;;;;6186092;23;20464;-49
2021/04/24 00:51:43;;;;;;;13.43;3.72;;;11.80;53.10;;;;;;6185953;23;20001;-49
2021/04/24 00:54:08;;;;;;;7.68;3.35;;;11.80;53.20;;;;;;6186020;23;20020;-50
2021/04/24 00:56:34;;;;;;;6.65;3.80;;;11.80;53.20;;;;;;6186187;23;20004;-49
2021/04/24 00:59:01;;;;;;;6.55;3.30;;;11.80;53.20;;;;;;6186068;23;20001;-50
2021/04/24 01:01:27;;;;;;;13.00;3.80;;;11.80;53.20;;;;;;6186198;23;20001;-49
2021/04/24 01:03:53;;;;;;;13.48;4.70;;;11.80;53.30;;;;;;6186449;23;20039;-49
2021/04/24 01:06:19;;;;;;;9.15;3.45;;;11.70;53.20;;;;;;6186095;23;20024;-50
2021/04/24 01:08:44;;;;;;;8.80;3.45;;;11.70;53.20;;;;;;6185851;23;20301;-49
2021/04/24 01:11:10;;;;;;;8.77;4.18;;;11.70;53.30;;;;;;6185663;23;20428;-49
2021/04/24 01:13:36;;;;;;;8.35;3.85;;;11.70;53.30;;;;;;6185833;23;20009;-50
2021/04/24 01:16:02;;;;;;;18.92;4.28;;;11.70;53.30;;;;;;6186178;23;20012;-50
2021/04/24 01:18:27;;;;;;;9.90;3.65;;;11.70;53.30;;;;;;6185609;23;20004;-49
2021/04/24 01:20:56;;;;;;;10.75;3.42;;;11.70;53.30;;;;;;6185683;23;20012;-49
2021/04/24 01:23:22;;;;;;;12.63;4.47;;;11.70;53.30;;;;;;6186212;23;20008;-49
2021/04/24 01:25:48;;;;;;;11.85;3.75;;;11.70;53.40;;;;;;6185793;23;20297;-49
2021/04/24 01:28:14;;;;;;;8.45;3.45;;;11.70;53.40;;;;;;6186024;23;20401;-49
2021/04/24 01:30:42;;;;;;;14.38;3.42;;;11.70;53.40;;;;;;6185809;23;20012;-50
2021/04/24 01:33:09;;;;;;;13.13;3.85;;;11.70;53.40;;;;;;6186281;23;20005;-50
2021/04/24 01:35:37;;;;;;;8.38;3.28;;;11.70;53.40;;;;;;6185911;23;20020;-49
2021/04/24 01:38:04;;;;;;;10.45;3.45;;;11.70;53.40;;;;;;6186103;23;20108;-50
2021/04/24 01:40:30;;;;;;;8.52;3.78;;;11.60;53.40;;;;;;6185097;23;20304;-49
2021/04/24 01:42:56;;;;;;;8.10;3.42;;;11.60;53.40;;;;;;6185905;23;20005;-49
2021/04/24 01:45:24;;;;;;;9.13;4.10;;;11.60;53.40;;;;;;6185919;23;19997;-49
2021/04/24 01:47:50;;;;;;;10.05;4.10;;;11.70;53.50;;;;;;6186054;23;20017;-49
2021/04/24 01:50:22;;;;;;;9.63;3.45;;;11.60;53.40;;;;;;6185220;23;20008;-49
2021/04/24 01:52:50;;;;;;;8.27;3.47;;;11.60;53.50;;;;;;6185477;23;20309;-49
2021/04/24 01:55:22;;;;;;;12.68;3.58;;;11.60;53.50;;;;;;6185359;23;20005;-49
2021/04/24 01:57:50;;;;;;;9.23;3.28;;;11.60;53.50;;;;;;6185753;23;20341;-49
2021/04/24 02:00:21;;;;;;;11.18;3.53;;;11.60;53.50;;;;;;6185615;23;20301;-50
2021/04/24 02:02:46;;;;;;;11.43;4.43;;;11.60;53.50;;;;;;6185979;23;20008;-49
2021/04/24 02:05:14;;;;;;;9.75;4.20;;;11.60;53.60;;;;;;6186037;23;20001;-49
2021/04/24 02:07:40;;;;;;;14.68;4.10;;;11.60;53.50;;;;;;6185182;23;20013;-49
2021/04/24 02:10:09;;;;;;;8.10;3.42;;;11.60;53.60;;;;;;6185510;23;20374;-49
2021/04/24 02:12:35;;;;;;;6.95;3.30;;;11.60;53.60;;;;;;6185442;23;20076;-49
2021/04/24 02:15:04;;;;;;;7.30;3.38;;;11.60;53.60;;;;;;6185671;23;20036;-49
2021/04/24 02:17:30;;;;;;;13.07;4.57;;;11.60;53.70;;;;;;6186009;23;20001;-49
2021/04/24 02:19:55;;;;;;;10.65;4.18;;;11.60;53.70;;;;;;6187003;23;20016;-50
2021/04/24 02:22:22;;;;;;;9.23;4.03;;;11.60;53.70;;;;;;6187741;23;20009;-50
2021/04/24 02:24:54;;;;;;;10.90;4.00;;;11.60;53.70;;;;;;6187874;23;20072;-49
2021/04/24 02:27:21;;;;;;;9.98;3.95;;;11.60;53.70;;;;;;6187550;23;20008;-50
2021/04/24 02:29:48;;;;;;;7.90;3.78;;;11.60;53.70;;;;;;6187244;23;20401;-50
2021/04/24 02:32:15;;;;;;;9.52;3.72;;;11.50;53.70;;;;;;6187209;23;20420;-49
2021/04/24 02:34:44;;;;;;;8.82;3.33;;;11.50;53.70;;;;;;6187568;23;20043;-49
2021/04/24 02:37:12;;;;;;;8.73;3.75;;;11.50;53.80;;;;;;6187298;23;20030;-49
2021/04/24 02:39:40;;;;;;;9.68;4.25;;;11.50;53.70;;;;;;6183933;23;20036;-49
2021/04/24 02:42:08;;;;;;;6.55;3.22;;;11.60;53.80;;;;;;6187612;23;20303;-49
2021/04/24 02:44:34;;;;;;;6.43;3.42;;;11.50;53.80;;;;;;6187292;23;20008;-50
2021/04/24 02:47:01;;;;;;;6.60;3.28;;;11.50;53.80;;;;;;6187718;23;20028;-49
2021/04/24 02:49:26;;;;;;;7.35;3.33;;;11.50;53.80;;;;;;6187081;23;20013;-49
2021/04/24 02:51:56;;;;;;;8.77;3.58;;;11.50;53.80;;;;;;6187576;23;20004;-49
2021/04/24 02:54:23;;;;;;;6.97;3.37;;;11.50;53.80;;;;;;6187228;23;20398;-49
2021/04/24 02:56:49;;;;;;;8.73;3.40;;;11.50;53.90;;;;;;6187575;23;20012;-49
2021/04/24 02:59:15;;;;;;;11.30;3.92;;;11.50;54.00;;;;;;6186818;23;20325;-49
2021/04/24 03:01:42;;;;;;;5.80;3.70;;;11.50;54.00;;;;;;6187616;23;20058;-50
2021/04/24 03:04:08;;;;;;;8.38;4.15;;;11.50;54.00;;;;;;6186993;23;19993;-49
2021/04/24 03:06:34;;;;;;;15.30;4.60;;;11.50;54.00;;;;;;6187188;23;20013;-49
2021/04/24 03:09:01;;;;;;;7.43;3.92;;;11.50;54.00;;;;;;6186743;23;20021;-49
2021/04/24 03:11:27;;;;;;;9.75;3.97;;;11.50;54.10;;;;;;6187368;23;20006;-49
2021/04/24 03:13:52;;;;;;;7.53;3.85;;;11.50;54.00;;;;;;6187288;23;20004;-50
2021/04/24 03:16:18;;;;;;;9.13;3.63;;;11.50;54.10;;;;;;6187111;23;20469;-50
2021/04/24 03:18:43;;;;;;;12.90;3.83;;;11.50;54.00;;;;;;6186596;23;20009;-50
2021/04/24 03:21:09;;;;;;;7.43;3.80;;;11.40;54.10;;;;;;6186952;23;20001;-49
2021/04/24 03:23:35;;;;;;;16.45;3.70;;;11.50;54.70;;;;;;6187383;23;20009;-50
2021/04/24 03:26:01;;;;;;;11.25;4.18;;;11.50;54.10;;;;;;6186938;23;20001;-49
2021/04/24 03:28:27;;;;;;;9.07;3.75;;;11.40;54.10;;;;;;6186388;23;20013;-50
2021/04/24 03:30:52;;;;;;;10.73;3.67;;;11.40;54.20;;;;;;6187148;23;20456;-49
2021/04/24 03:33:18;;;;;;;10.02;3.42;;;11.40;54.20;;;;;;6187288;23;20012;-49
2021/04/24 03:35:44;;;;;;;5.25;2.90;;;11.40;54.20;;;;;;6186701;23;20305;-49
2021/04/24 03:38:09;;;;;;;8.07;3.10;;;11.40;54.20;;;;;;6186794;23;20401;-49
2021/04/24 03:40:35;;;;;;;15.70;4.88;;;11.40;54.20;;;;;;6186666;23;20008;-49
2021/04/24 03:43:01;;;;;;;8.63;3.88;;;11.40;54.30;;;;;;6187459;23;20029;-49
2021/04/24 03:45:26;;;;;;;7.10;3.30;;;11.40;54.30;;;;;;6186878;23;20001;-49
2021/04/24 03:47:54;;;;;;;7.60;3.88;;;11.40;54.30;;;;;;6187110;23;20064;-50
2021/04/24 03:50:22;;;;;;;10.82;4.03;;;11.40;54.30;;;;;;6186330;23;20005;-49
2021/04/24 03:52:48;;;;;;;13.60;3.85;;;11.40;54.40;;;;;;6187015;23;20008;-49
2021/04/24 03:55:16;;;;;;;8.35;3.88;;;11.40;54.40;;;;;;6186789;23;20008;-49
2021/04/24 03:57:45;;;;;;;10.65;3.30;;;11.40;54.40;;;;;;6186701;23;20005;-49
2021/04/24 04:00:13;;;;;;;16.35;3.63;;;11.40;54.40;;;;;;6186053;23;20057;-49
2021/04/24 04:02:59;;;;;;;8.50;3.03;;;11.40;54.40;;;;;;6187082;23;20068;-49
2021/04/24 04:05:30;;;;;;;8.13;3.72;;;11.40;54.50;;;;;;6186845;23;20072;-49
2021/04/24 04:07:57;;;;;;;12.50;3.85;;;11.40;54.50;;;;;;6186718;23;20013;-49
2021/04/24 04:10:23;;;;;;;7.80;3.65;;;11.30;54.40;;;;;;6186012;23;20300;-49
2021/04/24 04:12:50;;;;;;;7.40;3.28;;;11.30;54.50;;;;;;6186724;23;20001;-50
2021/04/24 04:15:17;;;;;;;13.25;3.75;;;11.30;54.50;;;;;;6186422;23;20005;-49
2021/04/24 04:18:08;;;;;;;11.98;3.80;;;11.30;54.60;;;;;;6186351;23;20004;-50
2021/04/24 04:20:36;;;;;;;10.73;3.38;;;11.30;54.60;;;;;;6185232;23;20017;-49
2021/04/24 04:23:01;;;;;;;7.00;3.53;;;11.30;54.60;;;;;;6186852;23;20040;-49
2021/04/24 04:25:27;;;;;;;9.38;4.13;;;11.30;54.60;;;;;;6186533;23;20398;-49
2021/04/24 04:27:53;;;;;;;11.68;4.35;;;11.30;54.60;;;;;;6186364;23;20076;-49
2021/04/24 04:30:21;;;;;;;6.80;2.97;;;11.30;54.60;;;;;;6186174;23;20072;-50
2021/04/24 04:32:47;;;;;;;9.75;3.10;;;11.30;54.60;;;;;;6185830;23;20427;-49
2021/04/24 04:35:14;;;;;;;9.95;3.42;;;11.30;54.60;;;;;;6186212;23;20337;-49
2021/04/24 04:37:40;;;;;;;8.30;3.88;;;11.30;54.60;;;;;;6186317;23;20329;-50
2021/04/24 04:40:07;;;;;;;7.00;3.63;;;11.30;54.70;;;;;;6185349;23;20005;-50
2021/04/24 04:42:33;;;;;;;9.60;3.53;;;11.30;54.60;;;;;;6186225;23;20001;-49
2021/04/24 04:44:59;;;;;;;6.65;2.92;;;11.30;54.60;;;;;;6186049;23;20005;-49
2021/04/24 04:47:25;;;;;;;10.85;3.90;;;11.30;54.70;;;;;;6186269;23;20004;-50
2021/04/24 04:49:51;;;;;;;13.60;4.13;;;11.30;54.70;;;;;;6185682;23;20019;-49
2021/04/24 04:52:17;;;;;;;13.02;4.63;;;11.30;54.70;;;;;;6186148;23;20040;-49
2021/04/24 04:54:43;;;;;;;8.68;4.38;;;11.30;54.70;;;;;;6186238;23;20005;-49
2021/04/24 04:57:08;;;;;;;14.48;3.85;;;11.30;54.90;;;;;;6186042;23;20009;-49
2021/04/24 04:59:34;;;;;;;9.40;4.30;;;11.30;54.80;;;;;;6185743;23;20112;-49
2021/04/24 05:01:59;;;;;;;8.43;3.88;;;11.30;54.80;;;;;;6185754;23;20052;-49
2021/04/24 05:04:25;;;;;;;11.30;3.70;;;11.30;54.80;;;;;;6186165;23;20012;-49
2021/04/24 05:06:51;;;;;;;6.28;3.03;;;11.30;54.70;;;;;;6185546;23;20356;-49
2021/04/24 05:09:19;;;;;;;8.98;3.70;;;11.30;54.70;;;;;;6185719;23;20009;-49
2021/04/24 05:11:45;;;;;;;9.73;3.30;;;11.30;54.70;;;;;;6185544;23;20008;-49
2021/04/24 05:14:11;;;;;;;13.75;3.75;;;11.40;54.70;;;;;;6185645;23;20347;-49
2021/04/24 05:16:37;;;;;;;11.57;4.82;;;11.40;54.60;;;;;;6185849;23;19998;-50
2021/04/24 05:19:03;;;;;;;13.18;4.43;;;11.40;54.40;;;;;;6185471;23;20096;-50
2021/04/24 05:21:29;;;;;;;8.48;4.25;;;11.40;54.40;;;;;;6186119;23;20047;-50
2021/04/24 05:23:55;;;;;;;12.75;5.22;;;11.40;54.30;;;;;;6186228;23;20000;-49
2021/04/24 05:26:21;;;;;;;10.82;3.40;;;11.40;54.40;;;;;;6185799;23;20032;-49
2021/04/24 05:28:46;;;;;;;6.43;3.05;;;11.50;54.30;;;;;;6185708;23;20009;-50
2021/04/24 05:31:12;;;;;;;12.38;4.15;;;11.50;54.20;;;;;;6185427;23;19993;-50
2021/04/24 05:33:37;;;;;;;9.77;3.85;;;11.50;54.00;;;;;;6186110;23;20036;-50
2021/04/24 05:36:08;;;;;;;14.65;4.07;;;11.50;53.80;;;;;;6185832;23;20001;-50
2021/04/24 05:38:34;;;;;;;8.07;3.25;;;11.60;53.70;;;;;;6185886;23;20052;-50
2021/04/24 05:41:00;;;;;;;10.65;3.78;;;11.60;53.60;;;;;;6185666;23;20005;-50
2021/04/24 05:43:25;;;;;;;9.73;3.88;;;11.60;53.40;;;;;;6185716;23;20016;-49
2021/04/24 05:45:51;;;;;;;8.77;3.67;;;11.70;53.40;;;;;;6184851;23;20009;-50
2021/04/24 05:48:17;;;;;;;12.60;3.75;;;11.70;53.30;;;;;;6185579;23;20132;-50
2021/04/24 05:50:42;;;;;;;11.30;3.58;;;11.70;53.30;;;;;;6185273;23;20009;-50
2021/04/24 05:53:09;;;;;;;9.60;3.28;;;11.70;53.40;;;;;;6186074;23;20009;-49
2021/04/24 05:55:34;;;;;;;7.75;3.60;;;11.70;53.40;;;;;;6185279;23;20001;-49
2021/04/24 05:58:00;;;;;;;10.27;3.70;;;11.70;53.50;;;;;;6185480;23;20045;-48
2021/04/24 06:00:27;;;;;;;16.92;4.43;;;11.80;53.50;;;;;;6185153;23;20001;-48
2021/04/24 06:02:52;;;;;;;11.15;4.85;;;11.80;53.40;;;;;;6185854;23;20005;-48
2021/04/24 06:05:18;;;;;;;11.25;4.03;;;11.80;53.10;;;;;;6186010;23;20381;-48
2021/04/24 06:07:45;;;;;;;11.02;4.43;;;11.90;53.00;;;;;;6185468;23;20044;-48
2021/04/24 06:10:13;;;;;;;9.15;3.90;;;11.90;52.90;;;;;;6185523;23;20008;-48
2021/04/24 06:12:40;;;;;;;6.15;3.50;;;11.90;52.80;;;;;;6185996;23;20001;-48
2021/04/24 06:15:08;;;;;;;22.35;4.07;;;12.00;52.70;;;;;;6186128;23;20270;-48
2021/04/24 06:17:34;;;;;;;9.05;3.85;;;12.00;52.70;;;;;;6185753;23;20108;-48
2021/04/24 06:19:59;;;;;;;9.23;4.38;;;12.00;52.60;;;;;;6185176;23;20047;-48
2021/04/24 06:22:25;;;;;;;8.38;3.30;;;12.10;52.70;;;;;;6185726;23;20393;-48
2021/04/24 06:24:51;;;;;;;12.57;4.15;;;12.10;52.60;;;;;;6185478;23;20009;-49
2021/04/24 06:27:16;;;;;;;16.70;4.10;;;12.10;52.60;;;;;;6185028;23;20055;-48
2021/04/24 06:29:42;;;;;;;16.23;4.30;;;12.20;52.60;;;;;;6185424;23;20071;-48
2021/04/24 06:32:08;;;;;;;9.98;4.18;;;12.20;52.60;;;;;;6185731;23;20059;-48
2021/04/24 06:34:34;;;;;;;7.97;3.67;;;12.30;52.60;;;;;;6185661;23;20004;-48
2021/04/24 06:36:59;;;;;;;8.88;4.47;;;12.30;52.50;;;;;;6185686;23;20356;-48
2021/04/24 06:39:25;;;;;;;10.02;4.03;;;12.40;52.50;;;;;;6185350;23;20075;-48
2021/04/24 06:41:51;;;;;;;11.85;4.80;;;12.40;52.50;;;;;;6184955;23;20352;-48
2021/04/24 06:44:17;;;;;;;12.65;4.45;;;12.40;52.40;;;;;;6185084;23;20030;-48
2021/04/24 06:46:42;;;;;;;10.63;4.30;;;12.50;52.50;;;;;;6185324;23;20028;-48
2021/04/24 06:49:09;;;;;;;9.05;3.53;;;12.50;52.40;;;;;;6208326;23;20017;-48
2021/04/24 06:51:34;;;;;;;16.83;4.30;;;12.60;52.40;;;;;;6185517;23;20082;-48
2021/04/24 06:54:00;;;;;;;8.00;3.72;;;12.60;52.30;;;;;;6185644;23;20012;-48
2021/04/24 06:56:25;;;;;;;12.68;4.55;;;12.60;52.20;;;;;;6185403;23;20001;-48
2021/04/24 06:58:51;;;;;;;15.15;4.82;;;12.60;52.10;;;;;;6185021;23;20069;-48
2021/04/24 07:01:16;;;;;;;9.90;4.10;;;12.70;52.10;;;;;;6185442;23;20453;-48
2021/04/24 07:03:42;;;;;;;7.15;4.63;;;12.70;52.00;;;;;;6186323;23;20470;-48
2021/04/24 07:06:08;;;;;;;15.38;5.68;;;12.80;52.00;;;;;;6186975;23;20340;-48
2021/04/24 07:08:34;;;;;;;8.00;4.05;;;12.80;51.90;;;;;;6186859;23;20043;-48
2021/04/24 07:11:00;;;;;;;8.10;4.30;;;12.80;51.80;;;;;;6187028;23;20016;-48
2021/04/24 07:13:26;;;;;;;9.95;3.33;;;12.90;51.80;;;;;;6187041;23;20016;-48
2021/04/24 07:15:52;;;;;;;10.13;3.92;;;12.90;51.70;;;;;;6187302;23;20001;-48
2021/04/24 07:18:17;;;;;;;14.60;4.70;;;12.90;51.50;;;;;;6186916;23;20080;-48
2021/04/24 07:20:43;;;;;;;10.43;5.00;;;13.00;51.50;;;;;;6186771;23;20043;-48
2021/04/24 07:23:09;;;;;;;9.63;4.00;;;13.00;51.50;;;;;;6187066;23;20019;-48
2021/04/24 07:25:34;;;;;;;11.02;4.97;;;13.10;51.30;;;;;;6187177;23;20329;-48
2021/04/24 07:28:00;;;;;;;14.43;3.72;;;13.10;51.30;;;;;;6186354;23;20016;-48
2021/04/24 07:30:26;;;;;;;7.18;3.88;;;13.20;51.40;;;;;;6186284;23;20329;-48
2021/04/24 07:32:52;;;;;;;10.20;3.75;;;13.20;51.20;;;;;;6186698;23;20029;-49
2021/04/24 07:35:18;;;;;;;7.95;3.10;;;13.20;51.30;;;;;;6186919;23;20016;-50
2021/04/24 07:37:43;;;;;;;14.60;5.15;;;13.30;51.00;;;;;;6187236;23;19997;-50
2021/04/24 07:40:10;;;;;;;15.68;4.63;;;13.30;50.80;;;;;;6186840;23;20282;-50
2021/04/24 07:42:36;;;;;;;13.57;3.63;;;13.20;50.30;;;;;;6186651;23;20005;-50
2021/04/24 07:45:03;;;;;;;11.32;3.03;;;13.30;49.70;;;;;;6186813;23;20383;-50
2021/04/24 07:47:29;;;;;;;13.75;5.63;;;13.30;49.70;;;;;;6186535;23;20004;-50
2021/04/24 07:49:55;;;;;;;10.32;5.60;;;13.30;49.50;;;;;;6186753;23;20009;-50
2021/04/24 07:52:21;;;;;;;17.38;3.38;;;13.30;49.20;;;;;;6186635;23;20276;-50
2021/04/24 07:54:47;;;;;;;16.60;4.55;;;13.30;48.90;;;;;;6186620;23;20401;-50
2021/04/24 07:57:14;;;;;;;12.65;6.32;;;13.40;49.10;;;;;;6185965;23;20005;-51
2021/04/24 07:59:40;;;;;;;9.40;4.80;;;13.40;48.70;;;;;;6186657;23;20009;-51
2021/04/24 08:02:06;;;;;;;9.35;4.53;;;13.40;48.30;;;;;;6186882;23;20131;-51
2021/04/24 08:04:32;;;;;;;12.95;5.18;;;13.40;48.20;;;;;;6186652;23;20001;-51
2021/04/24 08:06:58;;;;;;;12.23;5.68;;;13.40;48.10;;;;;;6186517;23;20065;-51
2021/04/24 08:09:26;;;;;;;12.70;4.10;;;13.50;47.90;;;;;;6185875;23;20009;-51
2021/04/24 08:11:52;;;;;;;10.55;5.57;;;13.50;47.90;;;;;;6186888;23;20005;-51
2021/04/24 08:14:18;;;;;;;9.02;4.40;;;13.50;47.80;;;;;;6186586;23;20040;-51
2021/04/24 08:16:44;;;;;;;15.80;6.43;;;13.50;47.80;;;;;;6186529;23;20293;-51
2021/04/24 08:19:09;;;;;;;14.00;4.45;;;13.50;47.80;;;;;;6186118;23;20313;-51
2021/04/24 08:21:35;;;;;;;24.58;7.85;;;13.50;47.70;;;;;;6186553;23;20036;-51
2021/04/24 08:24:01;;;;;;;15.20;4.90;;;13.60;47.70;;;;;;6186758;23;20236;-51
2021/04/24 08:26:29;;;;;;;13.50;4.45;;;13.60;47.50;;;;;;6186431;23;20553;-51
2021/04/24 08:28:54;;;;;;;17.55;6.13;;;13.60;47.30;;;;;;6185804;23;20427;-51
2021/04/24 08:31:20;;;;;;;19.10;7.13;;;13.60;47.10;;;;;;6186424;23;20084;-51
2021/04/24 08:33:46;;;;;;;15.38;7.70;;;13.70;47.20;;;;;;6186162;23;20008;-51
2021/04/24 08:36:12;;;;;;;13.60;6.07;;;13.80;46.60;;;;;;6186674;23;20146;-58
2021/04/24 08:38:38;;;;;;;11.02;3.40;;;13.80;46.40;;;;;;6185956;23;20441;-48
2021/04/24 08:41:04;;;;;;;14.57;7.63;;;13.90;46.60;;;;;;6186569;23;20012;-48
2021/04/24 08:43:31;;;;;;;11.45;6.28;;;13.80;46.20;;;;;;6186250;23;20080;-49
2021/04/24 08:46:01;;;;;;;17.15;4.05;;;13.80;46.00;;;;;;6186571;23;20007;-49
2021/04/24 08:48:27;;;;;;;16.52;6.20;;;13.90;45.50;;;;;;6186061;23;20024;-49
2021/04/24 08:50:54;;;;;;;8.80;3.83;;;13.90;45.00;;;;;;6186427;23;20028;-48
2021/04/24 08:53:20;;;;;;;18.45;6.97;;;13.90;44.40;;;;;;6186272;23;20020;-48
2021/04/24 08:55:47;;;;;;;7.55;4.28;;;13.90;44.30;;;;;;6186453;23;20001;-49
2021/04/24 08:58:14;;;;;;;16.33;4.78;;;13.90;43.90;;;;;;6185884;23;20086;-49
2021/04/24 09:00:41;;;;;;;12.80;4.35;;;13.90;44.10;;;;;;6185852;23;20364;-49
2021/04/24 09:03:09;;;;;;;12.25;3.97;;;14.00;44.00;;;;;;6186251;23;20005;-49
2021/04/24 09:05:35;;;;;;;9.90;3.35;;;14.00;43.50;;;;;;6186342;23;20004;-49
2021/04/24 09:08:06;;;;;;;7.60;2.92;;;14.00;43.60;;;;;;6185587;23;20017;-49
2021/04/24 09:10:44;;;;;;;10.00;3.88;;;14.00;43.90;;;;;;6186063;23;20023;-49
2021/04/24 09:13:16;;;;;;;9.40;4.28;;;14.00;43.10;;;;;;6186301;23;20354;-49
2021/04/24 09:15:42;;;;;;;9.55;4.65;;;14.00;43.20;;;;;;6186441;23;20011;-50
2021/04/24 09:18:11;;;;;;;12.65;5.35;;;14.10;43.20;;;;;;6185906;23;20076;-50
2021/04/24 09:20:59;;;;;;;18.42;6.18;;;14.00;43.60;;;;;;6185596;23;20013;-50
2021/04/24 09:23:32;;;;;;;17.25;5.53;;;14.10;43.60;;;;;;6186267;23;20312;-50
2021/04/24 09:25:58;;;;;;;12.25;5.63;;;14.10;43.30;;;;;;6185990;23;19997;-49
2021/04/24 09:28:35;;;;;;;8.35;3.55;;;14.10;43.60;;;;;;6185665;23;20009;-51
2021/04/24 09:31:13;;;;;;;13.75;5.85;;;14.20;43.00;;;;;;6186311;23;20300;-50
2021/04/24 09:33:39;;;;;;;14.52;6.40;;;14.20;43.20;;;;;;6186096;23;20056;-49
2021/04/24 09:36:07;;;;;;;16.80;5.45;;;14.30;43.10;;;;;;6186136;23;20001;-50
2021/04/24 09:38:36;;;;;;;13.02;5.35;;;14.40;43.70;;;;;;6185501;23;20008;-49
2021/04/24 09:41:15;;;;;;;6.20;2.72;;;14.30;42.90;;;;;;6185818;23;20005;-49
2021/04/24 09:44:01;;;;;;;7.05;2.78;;;14.50;43.10;;;;;;6186333;23;20103;-48
2021/04/24 09:46:48;;;;;;;7.07;3.47;;;14.50;42.40;;;;;;6186243;23;20004;-47
2021/04/24 09:49:29;;;;;;;2.42;1.48;;;14.50;42.00;;;;;;6185005;23;20013;-47
2021/04/24 09:51:56;;;;;;;10.50;3.88;;;14.50;41.70;;;;;;6185678;23;20405;-47
2021/04/24 09:54:25;;;;;;;10.52;5.22;;;14.50;41.50;;;;;;6185902;23;20136;-47
2021/04/24 09:56:58;;;;;;;10.88;4.75;;;14.40;41.40;;;;;;6186033;23;20005;-47
2021/04/24 09:59:24;;;;;;;20.40;5.93;;;14.40;41.80;;;;;;6185176;23;20005;-47
2021/04/24 10:01:57;;;;;;;13.27;4.90;;;14.50;42.50;;;;;;6185741;23;20019;-47
2021/04/24 10:04:22;;;;;;;16.17;4.32;;;14.50;42.60;;;;;;6185865;23;20008;-47
2021/04/24 10:06:53;;;;;;;28.08;6.30;;;14.70;43.30;;;;;;6185840;23;19997;-47
2021/04/24 10:09:29;;;;;;;14.77;4.13;;;14.60;43.60;;;;;;6185491;23;20297;-47
2021/04/24 10:12:01;;;;;;;18.20;5.47;;;14.60;41.90;;;;;;6185716;23;20001;-48
2021/04/24 10:14:38;;;;;;;8.32;4.38;;;14.50;41.00;;;;;;6185481;23;20005;-47
2021/04/24 10:17:07;;;;;;;16.35;4.57;;;14.40;40.90;;;;;;6185992;23;20012;-47
2021/04/24 10:19:35;;;;;;;18.15;5.20;;;14.40;41.40;;;;;;6185217;23;20017;-47
2021/04/24 10:22:02;;;;;;;10.15;4.13;;;14.50;40.20;;;;;;6185892;23;20012;-47
2021/04/24 10:24:28;;;;;;;11.23;4.53;;;14.50;41.00;;;;;;6185312;23;20025;-47
2021/04/24 10:26:55;;;;;;;9.88;4.40;;;14.40;40.20;;;;;;6185748;23;20004;-49
2021/04/24 10:29:21;;;;;;;19.40;4.72;;;14.40;40.50;;;;;;6185252;23;20016;-46
2021/04/24 10:31:47;;;;;;;12.80;4.85;;;14.50;40.40;;;;;;6185827;23;20285;-47
2021/04/24 10:34:15;;;;;;;9.88;4.20;;;14.60;39.80;;;;;;6185756;23;20001;-46
2021/04/24 10:36:41;;;;;;;12.68;4.00;;;14.60;40.30;;;;;;6186181;23;20005;-46
2021/04/24 10:39:18;;;;;;;13.55;5.28;;;14.70;41.00;;;;;;6186375;23;20001;-47
2021/04/24 10:41:55;;;;;;;7.10;3.65;;;14.80;39.90;;;;;;6187580;23;20005;-47
2021/04/24 10:44:23;;;;;;;9.77;4.72;;;14.80;40.00;;;;;;6187278;23;20005;-46
2021/04/24 10:46:53;;;;;;;1.85;1.42;;;14.90;40.20;;;;;;6187852;23;20023;-46
2021/04/24 10:49:34;;;;;;;5.57;2.40;;;15.00;40.20;;;;;;6187146;23;20013;-47
2021/04/24 10:52:03;;;;;;;;;;;15.00;40.00;;;;;;6187634;23;19997;-46
2021/04/24 10:54:30;;;;;;;4.75;2.28;;;15.00;39.60;;;;;;6187459;23;19924;-46
2021/04/24 10:56:58;;;;;;;7.22;2.60;;;15.00;39.70;;;;;;6187713;23;20041;-46
2021/04/24 10:59:31;;;;;;;12.88;4.18;;;15.00;39.70;;;;;;6187089;23;20376;-46
2021/04/24 11:02:14;;;;;;;13.80;4.13;;;15.00;39.40;;;;;;6187537;23;20051;-46
2021/04/24 11:04:49;;;;;;;12.32;4.30;;;14.90;38.90;;;;;;6187312;23;20067;-47
2021/04/24 11:07:17;;;;;;;12.30;4.60;;;14.80;39.30;;;;;;6187135;23;20422;-46
2021/04/24 11:09:44;;;;;;;9.95;2.50;;;14.90;40.20;;;;;;6186500;23;20092;-46
2021/04/24 11:12:16;;;;;;;12.05;5.22;;;15.00;40.00;;;;;;6187482;23;20089;-46
2021/04/24 11:14:42;;;;;;;8.57;2.90;;;15.00;39.10;;;;;;6186995;23;20336;-46
2021/04/24 11:17:11;;;;;;;9.25;4.07;;;15.00;39.50;;;;;;6187321;23;20186;-47
2021/04/24 11:19:45;;;;;;;13.52;4.80;;;15.00;39.10;;;;;;6186654;23;20107;-47
2021/04/24 11:22:33;;;;;;;17.65;4.85;;;15.00;39.40;;;;;;6187384;23;20079;-47
2021/04/24 11:25:31;;;;;;;9.55;3.17;;;15.00;39.50;;;;;;6187225;23;20007;-47
2021/04/24 11:28:07;;;;;;;9.95;4.65;;;15.00;39.60;;;;;;6124691;23;20031;-46
2021/04/24 11:30:58;;;;;;;9.02;3.55;;;15.10;38.30;;;;;;6124477;23;20006;-47
2021/04/24 11:33:45;;;;;;;24.42;5.88;;;15.10;39.00;;;;;;6124929;23;20006;-47
2021/04/24 11:36:14;;;;;;;12.70;6.22;;;15.00;38.30;;;;;;6124641;23;20141;-47
2021/04/24 11:39:06;;;;;;;9.55;3.20;;;15.10;38.00;;;;;;6124374;23;20420;-47
2021/04/24 11:41:37;;;;;;;7.65;4.15;;;15.00;38.70;;;;;;6115250;23;20460;-47
2021/04/24 11:44:15;;;;;;;12.65;3.47;;;15.00;39.10;;;;;;6124658;23;20062;-46
2021/04/24 11:46:41;;;;;;;4.20;2.35;;;15.20;38.40;;;;;;6124730;23;20005;-47
2021/04/24 11:49:12;;;;;;;10.93;4.07;;;15.20;37.90;;;;;;6124169;23;20081;-46
2021/04/24 11:52:00;;;;;;;9.23;2.88;;;15.10;39.40;;;;;;6124580;23;20420;-46
2021/04/24 11:54:38;;;;;;;8.68;4.03;;;15.30;38.90;;;;;;6123004;23;20453;-47
2021/04/24 11:57:12;;;;;;;10.00;4.65;;;15.30;39.30;;;;;;6124413;23;20013;-47
2021/04/24 11:59:39;;;;;;;9.50;4.03;;;15.40;40.50;;;;;;6124158;23;20017;-47
2021/04/24 12:02:18;;;;;;;15.00;5.00;;;15.40;40.20;;;;;;6124619;23;20462;-46
2021/04/24 12:04:44;;;;;;;13.75;4.85;;;15.40;40.10;;;;;;6185523;23;20005;-46
2021/04/24 12:07:15;;;;;;;11.43;5.03;;;15.40;40.00;;;;;;6186948;23;20009;-47
2021/04/24 12:09:46;;;;;;;;;;;15.40;39.70;;;;;;6186800;23;20013;-47
2021/04/24 12:12:14;;;;;;;10.27;4.70;;;15.30;38.80;;;;;;6186516;23;20284;-47
2021/04/24 12:14:40;;;;;;;6.18;3.92;;;15.30;39.40;;;;;;6186897;23;20001;-46
2021/04/24 12:17:16;;;;;;;11.80;3.40;;;15.40;38.80;;;;;;6186730;23;20012;-47
2021/04/24 12:19:46;;;;;;;7.78;4.30;;;15.50;38.10;;;;;;6186106;23;20040;-47
2021/04/24 12:22:17;;;;;;;17.45;7.22;;;15.50;38.70;;;;;;6186435;23;20005;-47
2021/04/24 12:24:58;;;;;;;10.48;5.05;;;15.40;38.60;;;;;;6186695;23;19997;-46
2021/04/24 12:27:34;;;;;;;14.52;5.00;;;15.40;37.70;;;;;;6186551;23;19997;-47
2021/04/24 12:30:11;;;;;;;13.27;5.22;;;15.30;37.60;;;;;;6186332;23;20075;-47
2021/04/24 12:32:49;;;;;;;11.73;5.15;;;15.20;38.30;;;;;;6186632;23;20384;-47
2021/04/24 12:35:18;;;;;;;13.75;4.78;;;15.20;39.20;;;;;;6186658;23;20012;-46
2021/04/24 12:37:46;;;;;;;15.97;5.17;;;15.20;38.70;;;;;;6186330;23;20005;-47
2021/04/24 12:40:21;;;;;;;11.73;5.32;;;15.30;38.80;;;;;;6186134;23;20005;-47
2021/04/24 12:42:48;;;;;;;16.10;6.25;;;15.30;36.90;;;;;;6186695;23;20011;-46
2021/04/24 12:45:18;;;;;;;11.98;5.03;;;15.20;38.10;;;;;;6186376;23;20012;-46
2021/04/24 12:47:47;;;;;;;;;;;15.20;37.10;;;;;;6187081;23;20024;-46